Terminal Aerodrome Forecast
Issued by NWS Paducah, KY

Home | Current Version | Previous Version | Text Only | Print | Product List | Glossary On
Versions: 1 2 3 4 5 6 7 8 9 10 11 12 13 14 15 16 17 18 19 20 21 22 23
153
FTUS43 KPAH 241738
TAFPAH
TAF
KPAH 241738Z 2418/2518 VRB04KT P6SM FEW050
     FM250100 06002KT P6SM SCT250
     FM251000 00000KT 5SM BR SCT250
     FM251300 08005KT P6SM SCT050=

USA.gov is the U.S. government's official web portal to all federal, state and local government web resources and services.